Time;durP1;ratioP1;P1;durP2;ratioP2;P2;SDS_P1;SDS_P2;PMS_P1;PMS_P2;Temp;Humidity;BMP_temperature;BMP_pressure;BME280_temperature;BME280_humidity;BME280_pressure;Samples;Min_cycle;Max_cycle;Signal;HPM_P1;HPM_P2
2023/07/29 00:00:37;;;;;;;2.47;1.50;;;;;;;;;;5071539;28;20090;-80
2023/07/29 00:03:02;;;;;;;2.00;1.50;;;;;;;;;;5063324;28;20028;-80
2023/07/29 00:05:28;;;;;;;3.45;1.70;;;;;;;;;;5053674;28;20075;-82
2023/07/29 00:07:53;;;;;;;1.98;1.40;;;;;;;;;;5051171;28;20041;-80
2023/07/29 00:10:19;;;;;;;4.00;1.60;;;;;;;;;;5072595;28;20036;-80
2023/07/29 00:12:44;;;;;;;4.38;1.55;;;;;;;;;;5063691;28;20506;-80
2023/07/29 00:15:11;;;;;;;2.95;1.60;;;;;;;;;;5054624;28;20055;-82
2023/07/29 00:17:36;;;;;;;2.35;1.63;;;;;;;;;;5060802;28;20044;-82
2023/07/29 00:20:03;;;;;;;1.95;1.40;;;;;;;;;;5062443;28;20037;-80
2023/07/29 00:22:28;;;;;;;2.35;1.45;;;;;;;;;;5063465;28;20032;-80
2023/07/29 00:24:57;;;;;;;2.33;1.60;;;;;;;;;;5062811;28;20416;-81
2023/07/29 00:27:23;;;;;;;2.63;1.70;;;;;;;;;;5062303;28;20045;-80
2023/07/29 00:29:49;;;;;;;4.00;1.55;;;;;;;;;;5052408;28;20116;-81
2023/07/29 00:32:15;;;;;;;2.42;1.40;;;;;;;;;;5054042;28;20079;-80
2023/07/29 00:34:40;;;;;;;2.50;1.60;;;;;;;;;;5041859;28;20511;-81
2023/07/29 00:37:06;;;;;;;2.95;1.55;;;;;;;;;;5064433;28;20052;-80
2023/07/29 00:39:34;;;;;;;2.55;1.50;;;;;;;;;;5051900;28;20039;-81
2023/07/29 00:42:01;;;;;;;2.72;1.60;;;;;;;;;;5050348;28;20029;-81
2023/07/29 00:44:27;;;;;;;3.10;1.65;;;;;;;;;;5070663;28;20043;-82
2023/07/29 00:46:53;;;;;;;2.83;1.70;;;;;;;;;;5062463;28;20393;-80
2023/07/29 00:49:20;;;;;;;2.00;1.30;;;;;;;;;;5056878;28;20108;-80
2023/07/29 00:51:47;;;;;;;2.75;1.73;;;;;;;;;;5046817;28;20573;-81
2023/07/29 00:54:13;;;;;;;2.42;1.60;;;;;;;;;;5063145;28;20036;-81
2023/07/29 00:56:40;;;;;;;4.15;1.67;;;;;;;;;;5059669;28;20083;-81
2023/07/29 00:59:06;;;;;;;2.63;1.60;;;;;;;;;;5068409;28;20029;-82
2023/07/29 01:01:32;;;;;;;3.20;1.35;;;;;;;;;;5066251;28;20443;-80
2023/07/29 01:03:58;;;;;;;2.05;1.50;;;;;;;;;;5043831;28;20037;-80
2023/07/29 01:06:37;;;;;;;2.28;1.60;;;;;;;;;;5057665;28;20052;-80
2023/07/29 01:09:06;;;;;;;2.38;1.63;;;;;;;;;;5071601;28;20037;-81
2023/07/29 01:11:53;;;;;;;2.40;1.50;;;;;;;;;;5065298;28;20037;-81
2023/07/29 01:14:33;;;;;;;2.25;1.50;;;;;;;;;;5060708;28;20060;-80
2023/07/29 01:17:05;;;;;;;2.97;1.48;;;;;;;;;;5060720;28;20120;-80
2023/07/29 01:19:51;;;;;;;1.77;1.40;;;;;;;;;;5066530;28;20024;-80
2023/07/29 01:22:17;;;;;;;3.00;1.40;;;;;;;;;;5053786;28;20037;-81
2023/07/29 01:24:42;;;;;;;2.53;1.50;;;;;;;;;;5062251;28;20040;-81
2023/07/29 01:27:08;;;;;;;3.35;1.60;;;;;;;;;;5052183;28;20111;-80
2023/07/29 01:29:34;;;;;;;2.92;1.45;;;;;;;;;;5058559;28;20032;-81
2023/07/29 01:32:07;;;;;;;1.95;1.42;;;;;;;;;;5066501;28;20072;-80
2023/07/29 01:34:41;;;;;;;1.90;1.50;;;;;;;;;;5059060;28;20059;-80
2023/07/29 01:37:12;;;;;;;2.38;1.50;;;;;;;;;;5045570;28;20064;-81
2023/07/29 01:39:39;;;;;;;2.33;1.40;;;;;;;;;;5044449;28;20035;-81
2023/07/29 01:42:05;;;;;;;1.98;1.25;;;;;;;;;;5072546;28;20040;-80
2023/07/29 01:44:30;;;;;;;3.03;1.50;;;;;;;;;;5060659;28;20043;-81
2023/07/29 01:46:56;;;;;;;3.47;1.55;;;;;;;;;;5060072;28;20029;-80
2023/07/29 01:49:22;;;;;;;2.20;1.50;;;;;;;;;;5040747;28;20060;-82
2023/07/29 01:51:47;;;;;;;2.25;1.40;;;;;;;;;;5054118;28;20481;-81
2023/07/29 01:54:13;;;;;;;3.63;1.67;;;;;;;;;;5046144;28;20037;-80
2023/07/29 01:56:38;;;;;;;3.25;1.40;;;;;;;;;;5061328;28;20035;-80
2023/07/29 01:59:04;;;;;;;1.98;1.50;;;;;;;;;;5064017;28;20033;-80
2023/07/29 02:01:31;;;;;;;2.15;1.50;;;;;;;;;;5058730;28;20124;-82
2023/07/29 02:03:56;;;;;;;2.80;1.50;;;;;;;;;;5058503;28;20044;-81
2023/07/29 02:06:22;;;;;;;4.63;1.60;;;;;;;;;;5070310;28;20087;-80
2023/07/29 02:08:48;;;;;;;4.53;1.40;;;;;;;;;;5068396;28;20033;-81
2023/07/29 02:11:14;;;;;;;2.47;1.40;;;;;;;;;;5052331;28;20108;-81
2023/07/29 02:13:40;;;;;;;3.78;1.60;;;;;;;;;;5044514;28;20029;-80
2023/07/29 02:16:05;;;;;;;3.92;1.40;;;;;;;;;;5074824;28;20037;-80
2023/07/29 02:18:31;;;;;;;2.33;1.20;;;;;;;;;;5061930;28;20087;-80
2023/07/29 02:20:56;;;;;;;4.35;1.60;;;;;;;;;;5053281;28;20032;-81
2023/07/29 02:23:22;;;;;;;3.25;1.70;;;;;;;;;;5048010;28;20625;-80
2023/07/29 02:25:48;;;;;;;2.45;1.48;;;;;;;;;;5055811;28;20051;-81
2023/07/29 02:28:14;;;;;;;4.30;1.50;;;;;;;;;;5046035;28;20395;-80
2023/07/29 02:30:41;;;;;;;1.60;1.33;;;;;;;;;;5060731;28;20471;-80
2023/07/29 02:33:07;;;;;;;2.00;1.30;;;;;;;;;;5061385;28;20085;-80
2023/07/29 02:35:33;;;;;;;4.32;1.42;;;;;;;;;;5051073;28;20116;-80
2023/07/29 02:37:58;;;;;;;2.08;1.45;;;;;;;;;;5059940;28;20029;-80
2023/07/29 02:40:26;;;;;;;2.47;1.50;;;;;;;;;;5040480;28;20029;-80
2023/07/29 02:42:52;;;;;;;2.83;1.52;;;;;;;;;;5066825;28;20384;-81
2023/07/29 02:45:17;;;;;;;2.35;1.40;;;;;;;;;;5044773;28;20032;-80
2023/07/29 02:47:43;;;;;;;1.80;1.33;;;;;;;;;;5039985;28;20033;-80
2023/07/29 02:50:09;;;;;;;2.25;1.33;;;;;;;;;;5051373;28;20024;-80
2023/07/29 02:52:34;;;;;;;2.15;1.50;;;;;;;;;;5070205;28;20029;-80
2023/07/29 02:55:00;;;;;;;3.10;1.50;;;;;;;;;;5065454;28;20095;-80
2023/07/29 02:57:25;;;;;;;3.35;1.50;;;;;;;;;;5059948;28;20029;-80
2023/07/29 02:59:51;;;;;;;2.90;1.42;;;;;;;;;;5042451;28;20472;-80
2023/07/29 03:02:16;;;;;;;2.95;1.40;;;;;;;;;;5068611;28;20034;-81
2023/07/29 03:04:42;;;;;;;2.53;1.60;;;;;;;;;;5064316;28;20029;-81
2023/07/29 03:07:07;;;;;;;4.60;1.67;;;;;;;;;;5063478;28;20111;-82
2023/07/29 03:09:33;;;;;;;2.20;1.60;;;;;;;;;;5047730;28;20029;-80
2023/07/29 03:11:59;;;;;;;2.47;1.60;;;;;;;;;;5055200;28;20070;-79
2023/07/29 03:14:24;;;;;;;2.85;1.40;;;;;;;;;;5070223;28;20435;-81
2023/07/29 03:16:50;;;;;;;2.13;1.52;;;;;;;;;;5061604;28;20052;-83
2023/07/29 03:19:16;;;;;;;2.55;1.30;;;;;;;;;;5056378;28;20036;-81
2023/07/29 03:21:42;;;;;;;2.75;1.42;;;;;;;;;;5057976;28;20044;-83
2023/07/29 03:24:07;;;;;;;2.13;1.52;;;;;;;;;;5062620;28;20056;-81
2023/07/29 03:26:33;;;;;;;3.33;1.60;;;;;;;;;;5062372;28;20059;-81
2023/07/29 03:28:58;;;;;;;1.88;1.42;;;;;;;;;;5063762;28;20032;-81
2023/07/29 03:31:24;;;;;;;3.85;1.58;;;;;;;;;;5065054;28;20059;-82
2023/07/29 03:33:49;;;;;;;2.17;1.40;;;;;;;;;;5050752;28;20088;-81
2023/07/29 03:36:15;;;;;;;2.00;1.60;;;;;;;;;;5059022;28;20064;-83
2023/07/29 03:38:41;;;;;;;3.47;1.45;;;;;;;;;;5056035;28;20053;-83
2023/07/29 03:41:08;;;;;;;2.75;1.73;;;;;;;;;;5066705;28;20040;-83
2023/07/29 03:43:34;;;;;;;2.05;1.52;;;;;;;;;;5047911;28;20052;-81
2023/07/29 03:46:01;;;;;;;3.95;1.50;;;;;;;;;;5059303;28;20030;-81
2023/07/29 03:48:27;;;;;;;2.72;1.80;;;;;;;;;;5070055;28;20361;-82
2023/07/29 03:50:52;;;;;;;3.92;1.60;;;;;;;;;;5058479;28;20021;-81
2023/07/29 03:53:18;;;;;;;1.90;1.30;;;;;;;;;;5058028;28;20460;-80
2023/07/29 03:55:44;;;;;;;3.65;1.50;;;;;;;;;;5064071;28;20055;-81
2023/07/29 03:58:09;;;;;;;2.65;1.60;;;;;;;;;;5055704;28;20423;-80
2023/07/29 04:00:35;;;;;;;2.30;1.52;;;;;;;;;;5061899;28;20041;-80
2023/07/29 04:03:00;;;;;;;2.55;1.40;;;;;;;;;;5070557;28;20033;-80
2023/07/29 04:05:26;;;;;;;1.60;1.42;;;;;;;;;;5059632;28;20094;-80
2023/07/29 04:07:53;;;;;;;1.90;1.38;;;;;;;;;;5047208;28;20033;-81
2023/07/29 04:10:19;;;;;;;2.08;1.40;;;;;;;;;;5052634;28;20025;-82
2023/07/29 04:12:45;;;;;;;2.05;1.30;;;;;;;;;;5071625;28;20101;-82
2023/07/29 04:15:10;;;;;;;3.60;1.40;;;;;;;;;;5060592;28;20124;-81
2023/07/29 04:17:36;;;;;;;1.67;1.38;;;;;;;;;;5061045;28;20033;-80
2023/07/29 04:20:03;;;;;;;2.80;1.70;;;;;;;;;;5060826;28;20045;-80
2023/07/29 04:22:33;;;;;;;2.50;1.50;;;;;;;;;;5069182;28;20033;-82
2023/07/29 04:24:59;;;;;;;2.20;1.33;;;;;;;;;;5044410;28;20048;-82
2023/07/29 04:27:24;;;;;;;1.95;1.60;;;;;;;;;;5062329;28;20043;-82
2023/07/29 04:29:50;;;;;;;2.58;1.60;;;;;;;;;;5059203;28;20059;-81
2023/07/29 04:32:15;;;;;;;1.92;1.40;;;;;;;;;;5056185;28;20036;-81
2023/07/29 04:34:41;;;;;;;4.45;1.67;;;;;;;;;;5064377;28;20115;-80
2023/07/29 04:37:07;;;;;;;6.00;1.50;;;;;;;;;;5071849;28;20040;-80
2023/07/29 04:39:33;;;;;;;2.05;1.40;;;;;;;;;;5056714;28;20065;-80
2023/07/29 04:41:58;;;;;;;2.25;1.60;;;;;;;;;;5047579;28;20033;-81
2023/07/29 04:44:24;;;;;;;3.33;1.50;;;;;;;;;;5052930;28;20036;-81
2023/07/29 04:46:49;;;;;;;3.17;1.40;;;;;;;;;;5069595;28;20040;-81
2023/07/29 04:49:15;;;;;;;2.72;1.45;;;;;;;;;;5064087;28;20164;-80
2023/07/29 04:51:40;;;;;;;2.72;1.50;;;;;;;;;;5061868;28;20120;-80
2023/07/29 04:54:06;;;;;;;2.45;1.40;;;;;;;;;;5058859;28;20119;-80
2023/07/29 04:56:31;;;;;;;2.60;1.30;;;;;;;;;;5064520;28;20036;-81
2023/07/29 04:58:57;;;;;;;2.50;1.40;;;;;;;;;;5043504;28;20041;-81
2023/07/29 05:01:22;;;;;;;2.28;1.50;;;;;;;;;;5064504;28;20049;-81
2023/07/29 05:03:48;;;;;;;3.65;1.42;;;;;;;;;;5060606;28;20038;-81
2023/07/29 05:06:13;;;;;;;2.33;1.40;;;;;;;;;;5051386;28;20032;-82
2023/07/29 05:08:39;;;;;;;2.50;1.33;;;;;;;;;;5067043;28;20111;-82
2023/07/29 05:11:04;;;;;;;3.17;1.52;;;;;;;;;;5070758;28;20515;-82
2023/07/29 05:13:30;;;;;;;2.20;1.40;;;;;;;;;;5056214;28;20041;-81
2023/07/29 05:15:56;;;;;;;2.30;1.50;;;;;;;;;;5047756;28;20064;-82
2023/07/29 05:18:21;;;;;;;1.70;1.30;;;;;;;;;;5050966;28;20038;-81
2023/07/29 05:20:47;;;;;;;2.75;1.48;;;;;;;;;;5047648;28;20434;-80
2023/07/29 05:23:13;;;;;;;2.70;1.50;;;;;;;;;;5056037;28;20583;-82
2023/07/29 05:25:39;;;;;;;1.75;1.40;;;;;;;;;;5062229;28;20123;-80
2023/07/29 05:28:04;;;;;;;2.13;1.40;;;;;;;;;;5054947;28;20037;-80
2023/07/29 05:30:40;;;;;;;2.38;1.38;;;;;;;;;;5060102;28;20033;-81
2023/07/29 05:33:08;;;;;;;1.80;1.30;;;;;;;;;;5059661;28;20075;-81
2023/07/29 05:35:34;;;;;;;3.03;1.50;;;;;;;;;;5068272;28;20061;-80
2023/07/29 05:37:59;;;;;;;1.83;1.30;;;;;;;;;;5046600;28;20033;-80
2023/07/29 05:40:25;;;;;;;1.70;1.30;;;;;;;;;;5046710;28;20057;-80
2023/07/29 05:42:50;;;;;;;3.03;1.30;;;;;;;;;;5070404;28;20141;-81
2023/07/29 05:45:16;;;;;;;2.28;1.38;;;;;;;;;;5069604;28;20045;-81
2023/07/29 05:47:42;;;;;;;2.17;1.30;;;;;;;;;;5045842;28;20101;-80
2023/07/29 05:50:08;;;;;;;1.92;1.30;;;;;;;;;;5062687;28;20059;-81
2023/07/29 05:52:34;;;;;;;2.28;1.30;;;;;;;;;;5067767;28;20036;-80
2023/07/29 05:55:00;;;;;;;2.58;1.40;;;;;;;;;;5068639;28;20035;-81
2023/07/29 05:57:25;;;;;;;1.80;1.30;;;;;;;;;;5060209;28;20040;-81
2023/07/29 05:59:51;;;;;;;2.08;1.40;;;;;;;;;;5066320;28;20098;-80
2023/07/29 06:02:16;;;;;;;1.58;1.20;;;;;;;;;;5043439;28;20029;-81
2023/07/29 06:04:42;;;;;;;2.00;1.35;;;;;;;;;;5048386;28;20041;-80
2023/07/29 06:07:07;;;;;;;2.20;1.40;;;;;;;;;;5064519;28;20137;-80
2023/07/29 06:09:34;;;;;;;2.58;1.50;;;;;;;;;;5066848;28;20043;-80
2023/07/29 06:11:59;;;;;;;1.60;1.20;;;;;;;;;;5064783;28;20126;-80
2023/07/29 06:14:26;;;;;;;1.38;1.20;;;;;;;;;;5061261;28;20033;-80
2023/07/29 06:16:51;;;;;;;2.10;1.25;;;;;;;;;;5074209;28;20489;-81
2023/07/29 06:19:18;;;;;;;2.17;1.25;;;;;;;;;;5068278;28;20092;-80
2023/07/29 06:21:43;;;;;;;1.80;1.30;;;;;;;;;;5051319;28;20070;-81
2023/07/29 06:24:09;;;;;;;1.80;1.30;;;;;;;;;;5059722;28;20119;-80
2023/07/29 06:26:35;;;;;;;2.10;1.30;;;;;;;;;;5066806;28;20029;-80
2023/07/29 06:29:00;;;;;;;1.60;1.10;;;;;;;;;;5064880;28;20030;-82
2023/07/29 06:31:26;;;;;;;2.20;1.30;;;;;;;;;;5058263;28;20098;-82
2023/07/29 06:33:51;;;;;;;1.75;1.25;;;;;;;;;;5062833;28;20036;-81
2023/07/29 06:36:17;;;;;;;2.50;1.27;;;;;;;;;;5052766;28;20563;-82
2023/07/29 06:38:43;;;;;;;2.45;1.25;;;;;;;;;;5055501;28;20047;-81
2023/07/29 06:41:08;;;;;;;1.75;1.30;;;;;;;;;;5067176;28;20042;-81
2023/07/29 06:43:34;;;;;;;2.55;1.55;;;;;;;;;;5054517;28;20044;-80
2023/07/29 06:45:59;;;;;;;2.28;1.30;;;;;;;;;;5047916;28;20072;-81
2023/07/29 06:48:25;;;;;;;1.88;1.30;;;;;;;;;;5042763;28;20032;-80
2023/07/29 06:50:50;;;;;;;3.45;1.33;;;;;;;;;;5067331;28;20036;-82
2023/07/29 06:53:16;;;;;;;3.30;1.40;;;;;;;;;;5060002;28;20033;-81
2023/07/29 06:55:43;;;;;;;2.22;1.30;;;;;;;;;;5049755;28;20040;-81
2023/07/29 06:58:08;;;;;;;2.17;1.30;;;;;;;;;;5059337;28;20102;-81
2023/07/29 07:00:34;;;;;;;2.00;1.20;;;;;;;;;;5056943;28;20045;-80
2023/07/29 07:02:59;;;;;;;1.73;1.10;;;;;;;;;;5059825;28;20047;-80
2023/07/29 07:05:25;;;;;;;2.53;1.52;;;;;;;;;;5058733;28;20099;-80
2023/07/29 07:07:50;;;;;;;3.85;1.40;;;;;;;;;;5061055;28;20112;-80
2023/07/29 07:10:16;;;;;;;1.63;1.20;;;;;;;;;;5049528;28;20139;-81
2023/07/29 07:12:41;;;;;;;3.60;1.40;;;;;;;;;;5052412;28;20040;-81
2023/07/29 07:15:07;;;;;;;6.13;1.73;;;;;;;;;;5066510;28;20032;-81
2023/07/29 07:17:33;;;;;;;4.90;2.08;;;;;;;;;;5062795;28;20037;-81
2023/07/29 07:19:58;;;;;;;3.60;1.52;;;;;;;;;;5049747;28;20383;-81
2023/07/29 07:22:24;;;;;;;4.68;1.63;;;;;;;;;;5038925;28;20037;-81
2023/07/29 07:24:49;;;;;;;4.80;1.50;;;;;;;;;;5054379;28;20043;-81
2023/07/29 07:27:15;;;;;;;4.28;1.50;;;;;;;;;;5062584;28;20056;-84
2023/07/29 07:29:40;;;;;;;2.35;1.50;;;;;;;;;;5060690;28;20056;-81
2023/07/29 07:32:06;;;;;;;4.40;1.70;;;;;;;;;;5060755;28;20029;-81
2023/07/29 07:34:33;;;;;;;1.95;1.40;;;;;;;;;;5039884;28;20025;-82
2023/07/29 07:36:58;;;;;;;1.85;1.33;;;;;;;;;;5053480;28;20036;-83
2023/07/29 07:39:24;;;;;;;2.50;1.50;;;;;;;;;;5046183;28;20112;-81
2023/07/29 07:41:50;;;;;;;1.98;1.52;;;;;;;;;;5053990;28;20935;-80
2023/07/29 07:44:17;;;;;;;2.75;1.70;;;;;;;;;;5061576;28;20060;-81
2023/07/29 07:46:43;;;;;;;3.20;1.55;;;;;;;;;;5042613;28;20036;-80
2023/07/29 07:49:09;;;;;;;1.85;1.48;;;;;;;;;;5066817;28;20116;-80
2023/07/29 07:51:34;;;;;;;2.30;1.60;;;;;;;;;;5059044;28;20089;-80
2023/07/29 07:54:00;;;;;;;1.67;1.38;;;;;;;;;;5047552;28;20082;-82
2023/07/29 07:56:26;;;;;;;3.35;1.50;;;;;;;;;;5063390;28;20033;-80
2023/07/29 07:58:51;;;;;;;2.85;1.50;;;;;;;;;;5048138;28;20391;-80
2023/07/29 08:01:17;;;;;;;2.60;1.55;;;;;;;;;;5061236;28;20037;-80
2023/07/29 08:03:42;;;;;;;2.22;1.48;;;;;;;;;;5066519;28;20034;-79
2023/07/29 08:06:08;;;;;;;1.98;1.60;;;;;;;;;;5062867;28;20079;-80
2023/07/29 08:08:33;;;;;;;3.30;1.50;;;;;;;;;;5053701;28;20325;-79
2023/07/29 08:10:59;;;;;;;3.05;1.85;;;;;;;;;;5055043;28;20040;-80
2023/07/29 08:13:25;;;;;;;2.30;1.60;;;;;;;;;;5068684;28;20169;-80
2023/07/29 08:15:52;;;;;;;2.25;1.67;;;;;;;;;;5070678;28;20032;-81
2023/07/29 08:18:18;;;;;;;4.63;1.70;;;;;;;;;;5047222;28;20386;-80
2023/07/29 08:21:03;;;;;;;2.38;1.70;;;;;;;;;;5049606;28;20533;-79
2023/07/29 08:23:30;;;;;;;2.42;1.70;;;;;;;;;;5073453;28;20395;-80
2023/07/29 08:26:01;;;;;;;3.08;1.92;;;;;;;;;;5067938;28;20036;-81
2023/07/29 08:28:37;;;;;;;2.75;1.77;;;;;;;;;;5058857;28;20052;-81
2023/07/29 08:31:03;;;;;;;3.53;1.90;;;;;;;;;;5053390;28;20025;-80
2023/07/29 08:33:29;;;;;;;2.17;1.67;;;;;;;;;;5063574;28;20036;-79
2023/07/29 08:35:54;;;;;;;3.78;1.70;;;;;;;;;;5066195;28;20086;-80
2023/07/29 08:38:20;;;;;;;2.70;1.67;;;;;;;;;;5055886;28;20136;-79
2023/07/29 08:41:40;;;;;;;2.95;1.50;;;;;;;;;;5061471;28;20449;-80
2023/07/29 08:44:09;;;;;;;3.17;1.73;;;;;;;;;;5029354;28;20400;-80
2023/07/29 08:46:35;;;;;;;2.25;1.65;;;;;;;;;;5056539;28;20064;-80
2023/07/29 08:49:02;;;;;;;2.15;1.67;;;;;;;;;;5066645;28;20029;-80
2023/07/29 08:51:29;;;;;;;4.43;1.58;;;;;;;;;;5060577;28;20025;-80
2023/07/29 08:53:55;;;;;;;1.95;1.50;;;;;;;;;;5052332;28;20048;-79
2023/07/29 08:56:20;;;;;;;2.78;1.85;;;;;;;;;;5057041;28;20474;-80
2023/07/29 08:58:47;;;;;;;1.92;1.67;;;;;;;;;;5069913;28;20041;-80
2023/07/29 09:01:12;;;;;;;4.78;1.70;;;;;;;;;;5061742;28;20041;-81
2023/07/29 09:03:38;;;;;;;3.83;1.70;;;;;;;;;;5049803;28;20064;-81
2023/07/29 09:06:04;;;;;;;2.80;1.58;;;;;;;;;;5056369;28;20515;-81
2023/07/29 09:08:29;;;;;;;2.00;1.50;;;;;;;;;;5063096;28;20037;-81
2023/07/29 09:10:56;;;;;;;2.35;1.70;;;;;;;;;;5061435;28;20642;-81
2023/07/29 09:13:22;;;;;;;2.88;1.90;;;;;;;;;;5060974;28;20064;-80
2023/07/29 09:15:47;;;;;;;2.75;1.70;;;;;;;;;;5060717;28;20063;-80
2023/07/29 09:18:18;;;;;;;2.58;1.70;;;;;;;;;;5050425;28;20033;-80
2023/07/29 09:20:47;;;;;;;4.43;1.65;;;;;;;;;;5047578;28;20044;-81
2023/07/29 09:23:13;;;;;;;2.30;1.60;;;;;;;;;;5069846;28;20024;-80
2023/07/29 09:25:39;;;;;;;2.88;1.70;;;;;;;;;;5059858;28;20028;-82
2023/07/29 09:28:13;;;;;;;3.25;1.80;;;;;;;;;;5047245;28;20104;-81
2023/07/29 09:30:40;;;;;;;2.05;1.38;;;;;;;;;;5059964;28;20036;-81
2023/07/29 09:33:06;;;;;;;3.55;1.50;;;;;;;;;;5069759;28;20035;-80
2023/07/29 09:35:35;;;;;;;1.92;1.50;;;;;;;;;;5058471;28;20049;-80
2023/07/29 09:38:07;;;;;;;4.40;1.80;;;;;;;;;;5053990;28;20037;-80
2023/07/29 09:40:37;;;;;;;2.03;1.55;;;;;;;;;;5054978;28;20128;-81
2023/07/29 09:43:04;;;;;;;2.08;1.70;;;;;;;;;;5066837;28;20128;-81
2023/07/29 09:45:29;;;;;;;4.47;1.70;;;;;;;;;;5061799;28;20017;-81
2023/07/29 09:47:57;;;;;;;2.35;1.60;;;;;;;;;;5069350;28;20036;-82
2023/07/29 09:50:27;;;;;;;2.38;1.60;;;;;;;;;;5061016;28;20029;-81
2023/07/29 09:52:54;;;;;;;2.35;1.50;;;;;;;;;;5048194;28;20037;-80
2023/07/29 09:55:24;;;;;;;2.60;1.50;;;;;;;;;;5068620;28;20045;-81
2023/07/29 09:58:04;;;;;;;2.00;1.40;;;;;;;;;;5064582;28;20094;-81
2023/07/29 10:00:30;;;;;;;2.70;1.70;;;;;;;;;;5055038;28;20034;-80
2023/07/29 10:02:57;;;;;;;2.72;1.60;;;;;;;;;;5052786;28;20037;-80
2023/07/29 10:05:26;;;;;;;2.65;1.60;;;;;;;;;;5066842;28;20034;-81
2023/07/29 10:07:51;;;;;;;2.78;1.60;;;;;;;;;;5067733;28;20028;-81
2023/07/29 10:10:17;;;;;;;3.10;1.50;;;;;;;;;;5054702;28;20032;-79
2023/07/29 10:12:43;;;;;;;3.40;1.60;;;;;;;;;;5060248;28;20040;-80
2023/07/29 10:15:09;;;;;;;3.38;1.60;;;;;;;;;;5055022;28;20589;-79
2023/07/29 10:17:36;;;;;;;3.03;1.45;;;;;;;;;;5063472;28;20043;-80
2023/07/29 10:20:07;;;;;;;1.80;1.65;;;;;;;;;;5063096;28;20062;-80
2023/07/29 10:22:39;;;;;;;2.75;1.55;;;;;;;;;;5066564;28;20132;-80
2023/07/29 10:25:15;;;;;;;2.58;1.50;;;;;;;;;;5052777;28;20033;-79
2023/07/29 10:27:49;;;;;;;2.88;1.42;;;;;;;;;;5045777;28;20079;-82
2023/07/29 10:30:15;;;;;;;2.05;1.60;;;;;;;;;;5060553;28;20357;-81
2023/07/29 10:32:44;;;;;;;2.47;1.40;;;;;;;;;;5061876;28;20032;-82
2023/07/29 10:35:14;;;;;;;2.20;1.50;;;;;;;;;;5052046;28;20037;-80
2023/07/29 10:37:41;;;;;;;2.53;1.60;;;;;;;;;;5056311;28;20033;-80
2023/07/29 10:40:08;;;;;;;2.58;1.50;;;;;;;;;;5064522;28;20037;-79
2023/07/29 10:42:35;;;;;;;4.18;1.80;;;;;;;;;;5060982;28;20032;-81
2023/07/29 10:45:00;;;;;;;2.03;1.50;;;;;;;;;;5054203;28;20112;-81
2023/07/29 10:47:28;;;;;;;2.80;1.63;;;;;;;;;;5059367;28;20495;-80
2023/07/29 10:49:59;;;;;;;2.65;1.63;;;;;;;;;;5053614;28;20735;-81
2023/07/29 10:52:42;;;;;;;2.30;1.60;;;;;;;;;;5042504;28;20106;-82
2023/07/29 10:55:25;;;;;;;1.88;1.50;;;;;;;;;;5062136;28;20062;-81
2023/07/29 10:57:50;;;;;;;2.28;1.50;;;;;;;;;;5056024;28;20063;-81
2023/07/29 11:00:19;;;;;;;2.25;1.70;;;;;;;;;;5047111;28;20040;-80
2023/07/29 11:02:59;;;;;;;3.47;1.60;;;;;;;;;;5058002;28;20063;-81
2023/07/29 11:05:25;;;;;;;4.63;1.80;;;;;;;;;;5070299;28;20064;-81
2023/07/29 11:07:50;;;;;;;3.95;2.78;;;;;;;;;;5068968;28;20037;-81
2023/07/29 11:10:16;;;;;;;2.30;1.60;;;;;;;;;;5053442;28;20046;-80
2023/07/29 11:12:48;;;;;;;1.70;1.40;;;;;;;;;;5050086;28;20053;-81
2023/07/29 11:15:28;;;;;;;3.40;1.50;;;;;;;;;;5076024;28;20048;-81
2023/07/29 11:18:01;;;;;;;2.03;1.60;;;;;;;;;;5063849;28;20030;-81
2023/07/29 11:20:31;;;;;;;;;;;;;;;;;;5056339;28;20430;-81
2023/07/29 11:22:58;;;;;;;2.55;1.70;;;;;;;;;;5055127;28;19912;-81
2023/07/29 11:25:26;;;;;;;3.60;1.60;;;;;;;;;;5064569;28;20039;-81
2023/07/29 11:27:54;;;;;;;4.38;1.67;;;;;;;;;;5067894;28;20064;-80
2023/07/29 11:30:20;;;;;;;2.40;1.63;;;;;;;;;;5051280;28;20036;-80
2023/07/29 11:32:46;;;;;;;3.17;2.10;;;;;;;;;;5063737;28;20094;-81
2023/07/29 11:35:17;;;;;;;1.95;1.70;;;;;;;;;;5065816;28;20090;-81
2023/07/29 11:37:45;;;;;;;5.55;1.70;;;;;;;;;;5063823;28;20531;-81
2023/07/29 11:40:14;;;;;;;2.22;1.80;;;;;;;;;;5068616;28;20036;-80
2023/07/29 11:42:40;;;;;;;2.78;1.77;;;;;;;;;;5068562;28;20044;-81
2023/07/29 11:45:07;;;;;;;2.63;1.70;;;;;;;;;;5057932;28;20041;-81
2023/07/29 11:47:36;;;;;;;2.05;1.73;;;;;;;;;;5053889;28;20779;-81
2023/07/29 11:50:09;;;;;;;1.90;1.60;;;;;;;;;;5061521;28;20035;-80
2023/07/29 11:52:36;;;;;;;2.60;1.87;;;;;;;;;;5072010;28;20082;-83
2023/07/29 11:55:03;;;;;;;2.10;1.67;;;;;;;;;;5055016;28;20424;-80
2023/07/29 11:57:30;;;;;;;4.13;1.92;;;;;;;;;;5060161;28;20046;-84
2023/07/29 11:59:55;;;;;;;2.58;1.85;;;;;;;;;;5064971;28;20033;-81
2023/07/29 12:02:23;;;;;;;2.50;2.05;;;;;;;;;;5062636;28;20621;-81
2023/07/29 12:04:49;;;;;;;2.72;2.00;;;;;;;;;;5058697;28;20082;-81
2023/07/29 12:07:16;;;;;;;2.33;1.75;;;;;;;;;;5064393;28;20044;-81
2023/07/29 12:09:43;;;;;;;2.28;1.80;;;;;;;;;;5058952;28;20029;-80
2023/07/29 12:12:09;;;;;;;2.03;1.80;;;;;;;;;;5057952;28;20052;-81
2023/07/29 12:14:35;;;;;;;3.10;2.00;;;;;;;;;;5071738;28;20044;-82
2023/07/29 12:17:02;;;;;;;3.70;1.98;;;;;;;;;;5061306;28;20029;-79
2023/07/29 12:19:38;;;;;;;3.95;2.20;;;;;;;;;;5051587;28;20030;-80
2023/07/29 12:22:06;;;;;;;2.75;2.00;;;;;;;;;;5057141;28;20059;-81
2023/07/29 12:24:33;;;;;;;4.00;2.22;;;;;;;;;;5081889;28;20040;-80
2023/07/29 12:26:59;;;;;;;2.90;2.10;;;;;;;;;;5051039;28;20520;-82
2023/07/29 12:29:25;;;;;;;2.97;2.08;;;;;;;;;;5056996;28;20115;-80
2023/07/29 12:32:02;;;;;;;2.97;2.00;;;;;;;;;;5064396;28;20033;-80
2023/07/29 12:34:29;;;;;;;2.90;2.22;;;;;;;;;;5067993;28;20040;-82
2023/07/29 12:36:56;;;;;;;3.35;2.05;;;;;;;;;;5059932;28;20041;-80
2023/07/29 12:39:24;;;;;;;3.05;2.25;;;;;;;;;;5066302;28;20020;-82
2023/07/29 12:41:51;;;;;;;3.42;2.20;;;;;;;;;;5056908;28;20033;-81
2023/07/29 12:44:17;;;;;;;3.10;2.30;;;;;;;;;;5050756;28;20144;-82
2023/07/29 12:46:42;;;;;;;3.90;2.42;;;;;;;;;;5067831;28;20072;-81
2023/07/29 12:49:08;;;;;;;4.03;2.55;;;;;;;;;;5059780;28;20087;-80
2023/07/29 12:51:34;;;;;;;2.80;1.98;;;;;;;;;;5060187;28;20382;-83
2023/07/29 12:54:01;;;;;;;2.95;2.28;;;;;;;;;;5051046;28;20120;-81
2023/07/29 12:56:26;;;;;;;3.10;2.45;;;;;;;;;;5064654;28;20625;-81
2023/07/29 12:58:52;;;;;;;3.20;2.30;;;;;;;;;;5070021;28;20508;-83
2023/07/29 13:01:18;;;;;;;4.25;2.38;;;;;;;;;;5058746;28;20034;-83
2023/07/29 13:03:44;;;;;;;4.80;2.58;;;;;;;;;;5059507;28;20067;-82
2023/07/29 13:06:10;;;;;;;5.20;2.50;;;;;;;;;;5057862;28;20045;-82
2023/07/29 13:08:35;;;;;;;3.35;2.45;;;;;;;;;;5062155;28;20101;-82
2023/07/29 13:11:01;;;;;;;3.42;2.53;;;;;;;;;;5064340;28;20127;-82
2023/07/29 13:13:27;;;;;;;3.67;2.55;;;;;;;;;;5070162;28;20044;-83
2023/07/29 13:15:52;;;;;;;3.30;2.28;;;;;;;;;;5057504;28;20041;-83
2023/07/29 13:18:18;;;;;;;6.82;2.60;;;;;;;;;;5047649;28;20036;-82
2023/07/29 13:20:43;;;;;;;3.47;2.47;;;;;;;;;;5072146;28;20712;-82
2023/07/29 13:23:09;;;;;;;4.32;2.65;;;;;;;;;;5065305;28;20041;-83
2023/07/29 13:25:34;;;;;;;3.42;2.15;;;;;;;;;;5055687;28;20036;-82
2023/07/29 13:28:00;;;;;;;3.30;2.50;;;;;;;;;;5051002;28;20045;-82
2023/07/29 13:30:25;;;;;;;3.28;2.50;;;;;;;;;;5061467;28;20090;-82
2023/07/29 13:32:51;;;;;;;5.43;2.35;;;;;;;;;;5068308;28;20079;-83
2023/07/29 13:35:16;;;;;;;3.95;2.70;;;;;;;;;;5056835;28;20037;-84
2023/07/29 13:37:42;;;;;;;3.60;2.42;;;;;;;;;;5064059;28;20060;-83
2023/07/29 13:40:07;;;;;;;2.63;2.00;;;;;;;;;;5055083;28;20029;-82
2023/07/29 13:42:33;;;;;;;3.80;2.20;;;;;;;;;;5058458;28;20427;-83
2023/07/29 13:44:58;;;;;;;4.25;2.08;;;;;;;;;;5065566;28;20041;-82
2023/07/29 13:47:24;;;;;;;2.70;2.30;;;;;;;;;;5063488;28;20063;-83
2023/07/29 13:49:49;;;;;;;4.00;2.45;;;;;;;;;;5051814;28;20049;-81
2023/07/29 13:52:15;;;;;;;2.30;1.95;;;;;;;;;;5038553;28;20033;-82
2023/07/29 13:54:40;;;;;;;6.30;2.03;;;;;;;;;;5072129;28;20030;-83
2023/07/29 13:57:06;;;;;;;4.13;2.15;;;;;;;;;;5068268;28;20718;-82
2023/07/29 13:59:32;;;;;;;3.33;2.05;;;;;;;;;;5054386;28;20025;-83
2023/07/29 14:01:58;;;;;;;2.45;2.08;;;;;;;;;;5055379;28;20036;-83
2023/07/29 14:04:23;;;;;;;2.47;2.05;;;;;;;;;;5061771;28;20043;-82
2023/07/29 14:06:49;;;;;;;3.05;2.10;;;;;;;;;;5064545;28;20039;-83
2023/07/29 14:09:14;;;;;;;3.03;2.00;;;;;;;;;;5054462;28;20132;-83
2023/07/29 14:11:40;;;;;;;3.78;2.10;;;;;;;;;;5063252;28;20076;-84
2023/07/29 14:14:05;;;;;;;6.10;2.30;;;;;;;;;;5054721;28;20033;-83
2023/07/29 14:16:31;;;;;;;4.65;1.98;;;;;;;;;;5055545;28;20040;-83
2023/07/29 14:18:56;;;;;;;4.60;1.88;;;;;;;;;;5064367;28;20092;-83
2023/07/29 14:21:21;;;;;;;3.90;2.20;;;;;;;;;;5063879;28;20044;-82
2023/07/29 14:23:48;;;;;;;2.20;2.00;;;;;;;;;;5053738;28;20582;-83
2023/07/29 14:26:14;;;;;;;2.83;1.88;;;;;;;;;;5047301;28;20036;-83
2023/07/29 14:28:39;;;;;;;3.42;2.10;;;;;;;;;;5069231;28;20040;-83
2023/07/29 14:31:05;;;;;;;3.05;2.00;;;;;;;;;;5063250;28;20032;-84
2023/07/29 14:33:30;;;;;;;2.85;1.90;;;;;;;;;;5044377;28;20037;-86
2023/07/29 14:35:56;;;;;;;4.28;2.10;;;;;;;;;;5061885;28;20048;-82
2023/07/29 14:38:21;;;;;;;4.50;2.20;;;;;;;;;;5062220;28;20053;-82
2023/07/29 14:40:48;;;;;;;3.65;2.10;;;;;;;;;;5063954;28;20492;-84